Time;durP1;ratioP1;P1;durP2;ratioP2;P2;SDS_P1;SDS_P2;PMS_P1;PMS_P2;Temp;Humidity;BMP_temperature;BMP_pressure;BME280_temperature;BME280_humidity;BME280_pressure;Samples;Min_cycle;Max_cycle;Signal;HPM_P1;HPM_P2
2023/09/19 00:00:35;;;;;;;4.15;1.95;;;;;18.60;98104.00;;;;5051658;28;20088;-66
2023/09/19 00:03:04;;;;;;;5.35;2.28;;;;;18.60;98112.00;;;;5052946;28;20080;-67
2023/09/19 00:05:34;;;;;;;2.53;1.80;;;;;18.60;98115.00;;;;5052701;28;20128;-67
2023/09/19 00:08:04;;;;;;;4.75;1.80;;;;;18.70;98117.00;;;;5035294;28;20045;-66
2023/09/19 00:10:34;;;;;;;6.22;2.97;;;;;18.70;98104.00;;;;5053106;28;20037;-66
2023/09/19 00:13:07;;;;;;;4.10;1.90;;;;;18.70;98117.00;;;;5052875;28;20543;-66
2023/09/19 00:15:48;;;;;;;3.15;2.05;;;;;18.70;98112.00;;;;5051174;28;20521;-66
2023/09/19 00:18:18;;;;;;;4.32;2.13;;;;;18.70;98111.00;;;;5052857;28;20076;-66
2023/09/19 00:20:47;;;;;;;3.42;2.20;;;;;18.70;98118.00;;;;5052960;28;20052;-68
2023/09/19 00:23:14;;;;;;;4.95;2.20;;;;;18.70;98122.00;;;;5051316;28;20114;-68
2023/09/19 00:25:41;;;;;;;4.10;2.25;;;;;18.70;98117.00;;;;5052377;28;20127;-68
2023/09/19 00:28:09;;;;;;;3.40;2.10;;;;;18.70;98122.00;;;;5052918;28;20045;-67
2023/09/19 00:30:38;;;;;;;7.05;2.33;;;;;18.70;98125.00;;;;5052902;28;20040;-68
2023/09/19 00:33:06;;;;;;;3.55;2.42;;;;;18.80;98130.00;;;;5052097;28;20493;-67
2023/09/19 00:35:33;;;;;;;4.10;2.17;;;;;18.80;98133.00;;;;5052486;28;20103;-68
2023/09/19 00:38:00;;;;;;;4.47;2.42;;;;;18.80;98129.00;;;;5051960;28;20485;-67
2023/09/19 00:40:26;;;;;;;9.75;2.47;;;;;18.80;98138.00;;;;5051621;28;20581;-67
2023/09/19 00:42:59;;;;;;;3.08;2.22;;;;;18.80;98132.00;;;;5051461;28;20052;-67
2023/09/19 00:45:26;;;;;;;6.47;3.10;;;;;18.80;98136.00;;;;5051848;28;20041;-67
2023/09/19 00:47:52;;;;;;;3.88;2.92;;;;;18.70;98133.00;;;;5052332;28;20052;-67
2023/09/19 00:50:24;;;;;;;5.03;2.60;;;;;18.70;98129.00;;;;5052302;28;20045;-67
2023/09/19 00:52:55;;;;;;;3.03;2.08;;;;;18.70;98132.00;;;;5052743;28;20049;-67
2023/09/19 00:55:23;;;;;;;9.88;2.72;;;;;18.70;98135.00;;;;5052647;28;20061;-67
2023/09/19 00:57:51;;;;;;;5.15;2.38;;;;;18.70;98134.00;;;;5053781;28;20094;-67
2023/09/19 01:00:19;;;;;;;4.53;2.30;;;;;18.60;98143.00;;;;5051045;28;20075;-66
2023/09/19 01:02:47;;;;;;;4.05;2.10;;;;;18.60;98137.00;;;;5052682;28;20049;-66
2023/09/19 01:05:15;;;;;;;4.60;2.50;;;;;18.60;98141.00;;;;5050691;28;20049;-66
2023/09/19 01:07:44;;;;;;;4.18;2.40;;;;;18.60;98150.00;;;;5052188;28;20048;-66
2023/09/19 01:10:14;;;;;;;5.45;2.00;;;;;18.60;98155.00;;;;5051027;28;20041;-66
2023/09/19 01:12:59;;;;;;;2.20;1.75;;;;;18.50;98155.00;;;;5052355;28;20040;-66
2023/09/19 01:15:35;;;;;;;6.53;2.47;;;;;18.60;98164.00;;;;5050377;28;20136;-66
2023/09/19 01:18:37;;;;;;;5.07;2.20;;;;;18.60;98172.00;;;;5051133;28;20084;-66
2023/09/19 01:21:16;;;;;;;4.43;2.55;;;;;18.60;98171.00;;;;5051059;28;20126;-66
2023/09/19 01:24:11;;;;;;;2.83;2.10;;;;;18.60;98168.00;;;;5052042;28;20398;-66
2023/09/19 01:27:06;;;;;;;4.25;1.95;;;;;18.60;98171.00;;;;5033569;28;20061;-66
2023/09/19 01:29:39;;;;;;;2.88;2.10;;;;;18.60;98171.00;;;;5051084;28;20152;-66
2023/09/19 01:32:09;;;;;;;3.75;1.90;;;;;18.50;98166.00;;;;5050945;28;20103;-66
2023/09/19 01:34:49;;;;;;;4.03;1.95;;;;;18.50;98172.00;;;;5051968;28;20490;-67
2023/09/19 01:37:20;;;;;;;2.63;2.30;;;;;18.50;98175.00;;;;5054453;28;20073;-67
2023/09/19 01:39:53;;;;;;;4.63;2.30;;;;;18.40;98179.00;;;;5055786;28;20044;-64
2023/09/19 01:42:42;;;;;;;3.47;2.38;;;;;18.40;98180.00;;;;5055618;28;20047;-66
2023/09/19 01:45:33;;;;;;;3.33;2.17;;;;;18.30;98178.00;;;;5037584;28;20045;-64
2023/09/19 01:48:20;;;;;;;3.00;2.70;;;;;18.30;98187.00;;;;5048800;28;20057;-64
2023/09/19 01:51:01;;;;;;;3.88;2.78;;;;;18.30;98192.00;;;;5055497;28;20045;-65
2023/09/19 01:53:36;;;;;;;5.70;3.28;;;;;18.30;98203.00;;;;5053836;28;20099;-64
2023/09/19 01:56:07;;;;;;;6.70;3.53;;;;;18.20;98199.00;;;;5054192;28;20053;-64
2023/09/19 01:58:42;;;;;;;5.65;3.67;;;;;18.20;98202.00;;;;5055500;28;20448;-64
2023/09/19 02:01:13;;;;;;;5.18;3.90;;;;;18.20;98204.00;;;;5053844;28;20048;-67
2023/09/19 02:03:40;;;;;;;5.55;4.18;;;;;18.10;98204.00;;;;5054927;28;20049;-67
2023/09/19 02:06:11;;;;;;;6.88;4.30;;;;;18.10;98206.00;;;;5055388;28;20095;-67
2023/09/19 02:08:38;;;;;;;4.90;4.40;;;;;18.10;98213.00;;;;5053874;28;20060;-67
2023/09/19 02:11:05;;;;;;;6.20;4.28;;;;;18.10;98219.00;;;;5053658;28;20041;-67
2023/09/19 02:13:33;;;;;;;5.22;4.63;;;;;18.00;98212.00;;;;5053143;28;20453;-67
2023/09/19 02:16:00;;;;;;;6.20;4.45;;;;;18.00;98218.00;;;;5053702;28;20132;-67
2023/09/19 02:18:28;;;;;;;8.07;5.25;;;;;17.90;98221.00;;;;5054984;28;20405;-67
2023/09/19 02:20:56;;;;;;;5.82;4.90;;;;;17.90;98220.00;;;;5054913;28;20049;-67
2023/09/19 02:23:22;;;;;;;6.93;5.22;;;;;17.90;98223.00;;;;5054774;28;20059;-67
2023/09/19 02:26:00;;;;;;;6.63;5.60;;;;;17.80;98222.00;;;;5054303;28;20116;-68
2023/09/19 02:28:32;;;;;;;5.55;4.68;;;;;17.80;98218.00;;;;5053522;28;20095;-68
2023/09/19 02:30:59;;;;;;;5.28;4.78;;;;;17.80;98223.00;;;;5054584;28;20037;-66
2023/09/19 02:33:26;;;;;;;8.75;5.25;;;;;17.70;98217.00;;;;5054313;28;20052;-67
2023/09/19 02:35:59;;;;;;;10.52;5.38;;;;;17.70;98221.00;;;;5054365;28;20055;-67
2023/09/19 02:38:26;;;;;;;6.05;5.05;;;;;17.70;98221.00;;;;5053190;28;20128;-67
2023/09/19 02:40:55;;;;;;;5.28;4.70;;;;;17.70;98226.00;;;;5053363;28;20061;-67
2023/09/19 02:43:22;;;;;;;5.72;4.80;;;;;17.70;98230.00;;;;5054634;28;20052;-67
2023/09/19 02:45:49;;;;;;;6.13;5.20;;;;;17.70;98232.00;;;;5051851;28;20052;-68
2023/09/19 02:48:16;;;;;;;6.32;5.13;;;;;17.70;98227.00;;;;5054503;28;20037;-68
2023/09/19 02:50:44;;;;;;;6.80;5.30;;;;;17.70;98228.00;;;;5053011;28;20045;-68
2023/09/19 02:53:12;;;;;;;6.00;4.47;;;;;17.70;98226.00;;;;5053322;28;20122;-67
2023/09/19 02:55:42;;;;;;;8.32;5.60;;;;;17.70;98230.00;;;;5054174;28;20451;-66
2023/09/19 02:58:11;;;;;;;8.15;5.07;;;;;17.60;98233.00;;;;5052869;28;20509;-65
2023/09/19 03:00:38;;;;;;;7.50;5.05;;;;;17.60;98237.00;;;;5054150;28;20041;-65
2023/09/19 03:03:06;;;;;;;6.85;4.25;;;;;17.50;98239.00;;;;5053046;28;20461;-65
2023/09/19 03:05:33;;;;;;;7.72;4.40;;;;;17.50;98235.00;;;;5052627;28;20417;-66
2023/09/19 03:08:03;;;;;;;6.05;4.03;;;;;17.50;98239.00;;;;5052812;28;20106;-66
2023/09/19 03:10:30;;;;;;;7.85;4.75;;;;;17.50;98244.00;;;;5053733;28;20037;-66
2023/09/19 03:12:59;;;;;;;8.43;5.47;;;;;17.50;98240.00;;;;5052579;28;20464;-67
2023/09/19 03:15:26;;;;;;;9.40;5.15;;;;;17.50;98246.00;;;;5053437;28;20037;-67
2023/09/19 03:17:53;;;;;;;5.45;3.63;;;;;17.40;98244.00;;;;5053720;28;20083;-67
2023/09/19 03:20:22;;;;;;;6.22;4.20;;;;;17.40;98244.00;;;;5054475;28;20127;-67
2023/09/19 03:22:49;;;;;;;9.60;5.13;;;;;17.40;98242.00;;;;5053025;28;20045;-67
2023/09/19 03:25:17;;;;;;;9.02;4.90;;;;;17.40;98237.00;;;;5052294;28;20118;-67
2023/09/19 03:27:47;;;;;;;4.47;3.75;;;;;17.40;98238.00;;;;5052790;28;20045;-67
2023/09/19 03:30:14;;;;;;;6.78;4.30;;;;;17.40;98243.00;;;;5053293;28;20227;-67
2023/09/19 03:32:46;;;;;;;5.75;4.05;;;;;17.40;98244.00;;;;5038522;28;20037;-67
2023/09/19 03:35:14;;;;;;;6.07;4.32;;;;;17.40;98252.00;;;;5056823;28;20044;-67
2023/09/19 03:37:41;;;;;;;7.15;4.32;;;;;17.40;98260.00;;;;5056229;28;20171;-67
2023/09/19 03:40:10;;;;;;;6.97;3.88;;;;;17.40;98260.00;;;;5054903;28;20103;-66
2023/09/19 03:42:41;;;;;;;8.50;4.68;;;;;17.40;98257.00;;;;5055435;28;20525;-66
2023/09/19 03:45:15;;;;;;;;;;;;;17.50;98260.00;;;;5054323;28;20068;-66
2023/09/19 03:47:52;;;;;;;7.03;3.05;;;;;17.40;98265.00;;;;5053416;28;19938;-66
2023/09/19 03:50:21;;;;;;;5.32;2.70;;;;;17.30;98259.00;;;;5053608;28;20136;-66
2023/09/19 03:52:48;;;;;;;4.72;2.45;;;;;17.30;98265.00;;;;5053525;28;20040;-66
2023/09/19 03:55:15;;;;;;;6.80;3.20;;;;;17.30;98267.00;;;;5054597;28;20045;-66
2023/09/19 03:57:41;;;;;;;6.55;3.28;;;;;17.30;98263.00;;;;5053392;28;20069;-65
2023/09/19 04:00:11;;;;;;;5.45;2.85;;;;;17.30;98260.00;;;;5054160;28;20052;-65
2023/09/19 04:02:39;;;;;;;7.43;2.40;;;;;17.40;98265.00;;;;5037336;28;20045;-65
2023/09/19 04:05:07;;;;;;;7.97;3.60;;;;;17.40;98266.00;;;;5052747;28;20505;-66
2023/09/19 04:07:34;;;;;;;9.98;2.58;;;;;17.40;98267.00;;;;5053055;28;20049;-66
2023/09/19 04:10:02;;;;;;;6.30;2.95;;;;;17.40;98269.00;;;;5052218;28;20065;-66
2023/09/19 04:12:29;;;;;;;6.45;3.17;;;;;17.40;98267.00;;;;5052576;28;20076;-66
2023/09/19 04:14:56;;;;;;;9.05;3.03;;;;;17.40;98272.00;;;;5052663;28;20080;-66
2023/09/19 04:17:23;;;;;;;3.35;2.40;;;;;17.30;98265.00;;;;5051703;28;20049;-66
2023/09/19 04:19:50;;;;;;;8.18;3.53;;;;;17.30;98273.00;;;;5051986;28;20045;-66
2023/09/19 04:22:17;;;;;;;4.70;3.08;;;;;17.30;98278.00;;;;5051729;28;20037;-66
2023/09/19 04:24:44;;;;;;;5.72;2.70;;;;;17.30;98279.00;;;;5051184;28;20049;-66
2023/09/19 04:27:14;;;;;;;6.53;2.50;;;;;17.30;98285.00;;;;5051517;28;20079;-66
2023/09/19 04:29:41;;;;;;;9.00;2.75;;;;;17.30;98279.00;;;;5052669;28;20043;-66
2023/09/19 04:32:09;;;;;;;5.10;2.30;;;;;17.30;98284.00;;;;5052481;28;20041;-66
2023/09/19 04:34:38;;;;;;;5.07;2.35;;;;;17.40;98274.00;;;;5050480;28;20182;-66
2023/09/19 04:37:05;;;;;;;7.22;2.95;;;;;17.30;98274.00;;;;5052246;28;20056;-66
2023/09/19 04:39:32;;;;;;;6.32;3.08;;;;;17.30;98269.00;;;;5052359;28;20045;-66
2023/09/19 04:41:59;;;;;;;7.57;2.78;;;;;17.40;98287.00;;;;5051000;28;20076;-66
2023/09/19 04:44:26;;;;;;;8.55;2.80;;;;;17.40;98281.00;;;;5051564;28;20509;-66
2023/09/19 04:46:52;;;;;;;8.38;2.38;;;;;17.40;98278.00;;;;5051840;28;20071;-66
2023/09/19 04:49:19;;;;;;;8.00;2.30;;;;;17.30;98285.00;;;;5052093;28;20120;-66
2023/09/19 04:51:46;;;;;;;4.93;2.45;;;;;17.30;98288.00;;;;5052057;28;20041;-66
2023/09/19 04:54:14;;;;;;;6.50;2.70;;;;;17.30;98297.00;;;;5050208;28;20071;-66
2023/09/19 04:56:41;;;;;;;4.57;2.60;;;;;17.20;98298.00;;;;5052037;28;20128;-66
2023/09/19 04:59:07;;;;;;;4.32;1.90;;;;;17.20;98299.00;;;;5051009;28;20041;-66
2023/09/19 05:01:34;;;;;;;6.97;2.55;;;;;17.20;98301.00;;;;5052028;28;20041;-66
2023/09/19 05:04:01;;;;;;;5.93;2.78;;;;;17.20;98300.00;;;;5051666;28;20132;-66
2023/09/19 05:06:27;;;;;;;4.63;1.90;;;;;17.20;98302.00;;;;5050611;28;20059;-66
2023/09/19 05:08:54;;;;;;;5.47;2.33;;;;;17.10;98305.00;;;;5051744;28;20079;-66
2023/09/19 05:11:21;;;;;;;5.55;2.13;;;;;17.10;98297.00;;;;5051947;28;20099;-66
2023/09/19 05:13:52;;;;;;;9.05;2.42;;;;;17.10;98302.00;;;;5051343;28;20123;-66
2023/09/19 05:16:20;;;;;;;8.48;2.28;;;;;17.10;98300.00;;;;5034264;28;20068;-66
2023/09/19 05:18:46;;;;;;;5.13;2.03;;;;;17.10;98300.00;;;;5050775;28;20051;-66
2023/09/19 05:21:13;;;;;;;3.45;1.90;;;;;17.10;98307.00;;;;5050710;28;20139;-66
2023/09/19 05:23:39;;;;;;;4.60;2.00;;;;;17.10;98313.00;;;;5050165;28;20045;-67
2023/09/19 05:26:06;;;;;;;4.53;2.22;;;;;17.10;98322.00;;;;5050589;28;20114;-67
2023/09/19 05:28:34;;;;;;;6.95;2.28;;;;;17.10;98323.00;;;;5034975;28;20121;-67
2023/09/19 05:31:04;;;;;;;3.42;2.08;;;;;17.10;98326.00;;;;5051298;28;20140;-67
2023/09/19 05:33:33;;;;;;;6.95;2.70;;;;;17.00;98331.00;;;;5051213;28;20048;-67
2023/09/19 05:36:00;;;;;;;6.43;2.05;;;;;17.00;98335.00;;;;5051660;28;20041;-67
2023/09/19 05:38:27;;;;;;;7.32;2.33;;;;;17.00;98343.00;;;;5051179;28;20056;-67
2023/09/19 05:40:53;;;;;;;3.83;2.05;;;;;17.00;98340.00;;;;5052290;28;20395;-66
2023/09/19 05:43:20;;;;;;;6.00;2.35;;;;;17.00;98338.00;;;;5051926;28;20536;-66
2023/09/19 05:45:47;;;;;;;5.35;2.13;;;;;17.00;98341.00;;;;5050279;28;20564;-65
2023/09/19 05:48:15;;;;;;;6.47;2.50;;;;;17.00;98339.00;;;;5051635;28;20074;-65
2023/09/19 05:50:43;;;;;;;8.05;2.53;;;;;17.10;98350.00;;;;5051548;28;20033;-65
2023/09/19 05:53:14;;;;;;;4.47;2.15;;;;;17.10;98358.00;;;;5051374;28;20048;-66
2023/09/19 05:55:41;;;;;;;6.32;2.42;;;;;17.10;98361.00;;;;5050152;28;20485;-65
2023/09/19 05:58:09;;;;;;;7.10;2.40;;;;;17.10;98372.00;;;;5051460;28;20045;-66
2023/09/19 06:00:36;;;;;;;4.55;1.80;;;;;17.20;98372.00;;;;5050157;28;20044;-66
2023/09/19 06:03:05;;;;;;;5.50;2.15;;;;;17.20;98373.00;;;;5050361;28;20047;-67
2023/09/19 06:05:32;;;;;;;6.30;1.73;;;;;17.30;98366.00;;;;5050950;28;20411;-67
2023/09/19 06:07:59;;;;;;;9.32;2.67;;;;;17.30;98367.00;;;;5051620;28;20132;-67
2023/09/19 06:10:31;;;;;;;5.85;2.08;;;;;17.20;98371.00;;;;5051569;28;20049;-67
2023/09/19 06:12:58;;;;;;;5.57;1.90;;;;;17.30;98382.00;;;;5051565;28;20044;-67
2023/09/19 06:15:25;;;;;;;7.43;1.98;;;;;17.30;98372.00;;;;5049263;28;20049;-67
2023/09/19 06:17:59;;;;;;;4.15;2.33;;;;;17.40;98376.00;;;;5051380;28;20045;-67
2023/09/19 06:20:26;;;;;;;9.02;3.08;;;;;17.50;98372.00;;;;5051426;28;20049;-67
2023/09/19 06:22:53;;;;;;;5.75;2.08;;;;;17.50;98372.00;;;;5055023;28;20047;-67
2023/09/19 06:25:21;;;;;;;4.47;1.95;;;;;17.50;98370.00;;;;5054454;28;20045;-67
2023/09/19 06:27:52;;;;;;;7.45;2.40;;;;;17.50;98364.00;;;;5054190;28;20072;-66
2023/09/19 06:30:19;;;;;;;7.03;1.70;;;;;17.50;98365.00;;;;5054933;28;20049;-66
2023/09/19 06:32:46;;;;;;;7.35;2.30;;;;;17.60;98372.00;;;;5053919;28;20473;-66
2023/09/19 06:35:15;;;;;;;7.68;2.72;;;;;17.60;98366.00;;;;5054465;28;20148;-66
2023/09/19 06:37:43;;;;;;;3.45;1.98;;;;;17.60;98376.00;;;;5053690;28;20052;-66
2023/09/19 06:40:13;;;;;;;4.55;2.20;;;;;17.70;98374.00;;;;5054856;28;20045;-66
2023/09/19 06:42:45;;;;;;;6.70;2.25;;;;;17.70;98381.00;;;;5055135;28;20041;-67
2023/09/19 06:45:17;;;;;;;7.80;2.20;;;;;17.80;98376.00;;;;5054255;28;20045;-67
2023/09/19 06:47:51;;;;;;;6.78;1.90;;;;;17.80;98381.00;;;;5053325;28;20136;-67
2023/09/19 06:50:22;;;;;;;4.80;1.90;;;;;17.90;98392.00;;;;5053678;28;20512;-67
2023/09/19 06:52:51;;;;;;;5.93;1.70;;;;;17.90;98390.00;;;;5053572;28;20045;-68
2023/09/19 06:55:19;;;;;;;4.95;1.92;;;;;18.00;98390.00;;;;5053863;28;20051;-67
2023/09/19 06:57:47;;;;;;;5.75;2.10;;;;;18.00;98402.00;;;;5053341;28;20558;-68
2023/09/19 07:00:24;;;;;;;7.20;2.00;;;;;18.00;98403.00;;;;5053250;28;20561;-67
2023/09/19 07:03:03;;;;;;;4.43;1.83;;;;;18.00;98393.00;;;;5053099;28;20457;-68
2023/09/19 07:05:31;;;;;;;7.50;2.05;;;;;18.10;98393.00;;;;5053662;28;20045;-67
2023/09/19 07:08:01;;;;;;;5.15;1.90;;;;;18.30;98416.00;;;;5054313;28;20116;-69
2023/09/19 07:10:28;;;;;;;5.28;1.70;;;;;18.40;98407.00;;;;5054443;28;20099;-68
2023/09/19 07:13:08;;;;;;;5.15;2.05;;;;;18.50;98411.00;;;;5054606;28;20033;-68
2023/09/19 07:15:39;;;;;;;4.65;1.80;;;;;18.50;98422.00;;;;5053354;28;20056;-68
2023/09/19 07:18:06;;;;;;;4.55;2.05;;;;;18.60;98428.00;;;;5054049;28;20076;-68
2023/09/19 07:20:34;;;;;;;4.60;1.67;;;;;18.60;98428.00;;;;5054048;28;20041;-68
2023/09/19 07:23:01;;;;;;;3.88;1.75;;;;;18.60;98430.00;;;;5057196;28;20096;-68
2023/09/19 07:25:28;;;;;;;6.72;1.92;;;;;18.70;98431.00;;;;5069802;28;20053;-67
2023/09/19 07:27:56;;;;;;;3.78;1.88;;;;;18.90;98444.00;;;;5074532;28;20048;-67
2023/09/19 07:30:23;;;;;;;4.85;2.00;;;;;18.90;98451.00;;;;5073719;28;20052;-67
2023/09/19 07:32:49;;;;;;;7.05;1.88;;;;;18.90;98447.00;;;;5073100;28;20037;-67
2023/09/19 07:35:16;;;;;;;2.55;1.60;;;;;19.00;98457.00;;;;5069776;28;20053;-65
2023/09/19 07:37:43;;;;;;;4.75;1.90;;;;;18.90;98456.00;;;;5073758;28;20049;-66
2023/09/19 07:40:11;;;;;;;7.32;2.08;;;;;18.80;98459.00;;;;5074527;28;20052;-66
2023/09/19 07:42:40;;;;;;;6.90;2.15;;;;;18.80;98466.00;;;;5074951;28;20454;-65
2023/09/19 07:45:08;;;;;;;6.28;1.98;;;;;18.90;98467.00;;;;5071203;28;20057;-65
2023/09/19 07:47:36;;;;;;;7.72;2.15;;;;;18.90;98474.00;;;;5075770;28;20029;-66
2023/09/19 07:50:03;;;;;;;10.15;2.42;;;;;18.90;98478.00;;;;5075329;28;20049;-66
2023/09/19 07:52:30;;;;;;;6.32;2.88;;;;;18.80;98475.00;;;;5074074;28;20096;-65
2023/09/19 07:54:57;;;;;;;7.03;2.17;;;;;18.80;98484.00;;;;5076429;28;20108;-65
2023/09/19 07:57:24;;;;;;;6.13;1.85;;;;;18.80;98481.00;;;;5076347;28;20123;-66
2023/09/19 07:59:51;;;;;;;8.50;2.05;;;;;18.70;98494.00;;;;5077808;28;20040;-65
2023/09/19 08:02:18;;;;;;;7.75;2.05;;;;;18.70;98496.00;;;;5059511;28;20124;-66
2023/09/19 08:04:48;;;;;;;8.95;2.00;;;;;18.60;98499.00;;;;5074385;28;20089;-66
2023/09/19 08:07:16;;;;;;;9.30;2.72;;;;;18.70;98493.00;;;;5076740;28;20068;-66
2023/09/19 08:09:46;;;;;;;8.43;2.47;;;;;18.80;98498.00;;;;5074247;28;20053;-65
2023/09/19 08:12:12;;;;;;;7.35;2.70;;;;;18.80;98499.00;;;;5074409;28;20510;-66
2023/09/19 08:14:41;;;;;;;11.45;3.08;;;;;18.80;98508.00;;;;5075603;28;20048;-66
2023/09/19 08:17:08;;;;;;;8.52;2.40;;;;;18.90;98510.00;;;;5076453;28;20064;-66
2023/09/19 08:19:40;;;;;;;8.80;2.40;;;;;18.90;98510.00;;;;5072842;28;20053;-65
2023/09/19 08:22:10;;;;;;;5.78;2.10;;;;;19.00;98498.00;;;;5056877;28;20124;-64
2023/09/19 08:24:36;;;;;;;9.73;2.30;;;;;19.10;98508.00;;;;5055122;28;20113;-65
2023/09/19 08:27:05;;;;;;;6.10;2.45;;;;;19.30;98501.00;;;;5056780;28;20042;-65
2023/09/19 08:29:32;;;;;;;6.53;1.77;;;;;19.40;98499.00;;;;5056919;28;20136;-64
2023/09/19 08:31:59;;;;;;;9.90;2.63;;;;;19.50;98502.00;;;;5060814;28;20123;-65
2023/09/19 08:34:26;;;;;;;7.97;2.10;;;;;19.60;98499.00;;;;5064127;28;20044;-65
2023/09/19 08:36:57;;;;;;;8.02;2.83;;;;;19.70;98512.00;;;;5060158;28;20069;-64
2023/09/19 08:39:25;;;;;;;9.93;2.30;;;;;19.90;98508.00;;;;5062608;28;20080;-64
2023/09/19 08:42:01;;;;;;;7.20;1.90;;;;;19.90;98511.00;;;;5063864;28;20044;-64
2023/09/19 08:44:31;;;;;;;6.65;2.20;;;;;20.00;98502.00;;;;5060300;28;20041;-64
2023/09/19 08:47:15;;;;;;;9.68;2.22;;;;;20.00;98511.00;;;;5061390;28;20131;-65
2023/09/19 08:50:17;;;;;;;5.82;1.77;;;;;20.00;98507.00;;;;5057234;28;20560;-64
2023/09/19 08:52:45;;;;;;;3.97;1.88;;;;;20.10;98512.00;;;;5049655;28;20063;-64
2023/09/19 08:55:20;;;;;;;7.88;2.20;;;;;20.10;98506.00;;;;5051471;28;20037;-64
2023/09/19 08:57:49;;;;;;;9.00;2.00;;;;;20.20;98501.00;;;;5053723;28;20069;-64
2023/09/19 09:00:20;;;;;;;7.43;2.20;;;;;20.30;98509.00;;;;5051233;28;20490;-64
2023/09/19 09:02:49;;;;;;;7.55;2.00;;;;;20.20;98511.00;;;;5053056;28;20037;-65
2023/09/19 09:05:22;;;;;;;9.10;2.67;;;;;20.20;98506.00;;;;5050850;28;20139;-64
2023/09/19 09:07:51;;;;;;;9.13;2.00;;;;;20.30;98507.00;;;;5052407;28;20102;-65
2023/09/19 09:10:22;;;;;;;9.02;1.92;;;;;20.30;98511.00;;;;5052525;28;20041;-64
2023/09/19 09:12:54;;;;;;;7.95;2.00;;;;;20.50;98518.00;;;;5052637;28;20045;-65
2023/09/19 09:15:23;;;;;;;12.55;2.65;;;;;20.60;98513.00;;;;5051667;28;20048;-64
2023/09/19 09:17:53;;;;;;;4.93;1.90;;;;;20.80;98521.00;;;;5052127;28;20072;-65
2023/09/19 09:20:20;;;;;;;6.72;1.75;;;;;20.70;98525.00;;;;5051971;28;20045;-66
2023/09/19 09:23:04;;;;;;;4.80;1.77;;;;;20.80;98511.00;;;;5051860;28;20043;-64
2023/09/19 09:25:58;;;;;;;11.07;3.28;;;;;21.00;98518.00;;;;5051270;28;20099;-65
2023/09/19 09:28:27;;;;;;;4.95;1.88;;;;;21.10;98526.00;;;;5054055;28;20045;-65
2023/09/19 09:30:56;;;;;;;6.93;2.20;;;;;21.10;98503.00;;;;5051770;28;20068;-64
2023/09/19 09:33:22;;;;;;;5.65;1.92;;;;;21.00;98512.00;;;;5050675;28;20049;-65
2023/09/19 09:36:00;;;;;;;6.88;1.77;;;;;20.90;98519.00;;;;5051473;28;20045;-64
2023/09/19 09:38:32;;;;;;;7.13;1.90;;;;;20.80;98516.00;;;;5050631;28;20510;-64
2023/09/19 09:43:39;;;;;;;7.38;2.03;;;;;20.90;98515.00;;;;5051203;28;20037;-64
2023/09/19 09:46:54;;;;;;;4.70;1.90;;;;;20.90;98521.00;;;;5051483;28;20053;-64
2023/09/19 09:51:59;;;;;;;8.05;2.13;;;;;20.90;98516.00;;;;5051604;28;20083;-64
2023/09/19 09:54:39;;;;;;;5.57;2.05;;;;;20.80;98515.00;;;;5050946;28;20040;-64
2023/09/19 09:57:13;;;;;;;7.93;2.38;;;;;20.60;98508.00;;;;5055552;28;20045;-64
2023/09/19 09:59:53;;;;;;;5.70;1.55;;;;;20.60;98504.00;;;;5055549;28;20048;-64
2023/09/19 10:02:28;;;;;;;7.40;2.15;;;;;20.70;98508.00;;;;5055317;28;20099;-64
2023/09/19 10:07:52;;;;;;;6.35;2.00;;;;;20.90;98505.00;;;;5053942;28;20516;-64
2023/09/19 10:13:21;;;;;;;4.43;2.00;;;;;21.10;98505.00;;;;5042945;28;20049;-64
2023/09/19 10:15:50;;;;;;;5.47;1.98;;;;;21.20;98511.00;;;;5053593;28;20139;-64
2023/09/19 10:18:27;;;;;;;5.53;2.30;;;;;21.30;98518.00;;;;5055022;28;20363;-64
2023/09/19 10:20:56;;;;;;;6.80;2.30;;;;;21.20;98514.00;;;;5055027;28;20045;-64
2023/09/19 10:23:25;;;;;;;4.45;1.55;;;;;21.10;98508.00;;;;5053529;28;20505;-64
2023/09/19 10:25:52;;;;;;;4.60;1.50;;;;;21.20;98514.00;;;;5053292;28;20452;-64
2023/09/19 10:28:24;;;;;;;3.67;1.60;;;;;21.30;98510.00;;;;5054887;28;20494;-64
2023/09/19 10:30:52;;;;;;;4.68;1.85;;;;;21.30;98519.00;;;;5053498;28;20052;-65
2023/09/19 10:33:25;;;;;;;4.65;1.88;;;;;21.30;98522.00;;;;5054893;28;20045;-65
2023/09/19 10:35:55;;;;;;;5.88;2.10;;;;;21.20;98504.00;;;;5055057;28;20052;-65
2023/09/19 10:38:28;;;;;;;2.85;1.42;;;;;21.30;98498.00;;;;5054817;28;20052;-65
2023/09/19 10:41:00;;;;;;;3.63;1.80;;;;;21.50;98512.00;;;;5055024;28;20409;-65
2023/09/19 10:43:32;;;;;;;6.50;1.63;;;;;21.70;98512.00;;;;5054407;28;20275;-64
2023/09/19 10:46:07;;;;;;;6.15;1.90;;;;;21.90;98509.00;;;;5054770;28;20155;-66
2023/09/19 10:48:34;;;;;;;4.95;1.40;;;;;21.90;98509.00;;;;5037066;28;20053;-66
2023/09/19 10:51:19;;;;;;;3.08;1.60;;;;;21.90;98509.00;;;;5054691;28;20041;-66
2023/09/19 10:53:53;;;;;;;6.60;1.73;;;;;21.80;98506.00;;;;5054406;28;20112;-66
2023/09/19 10:56:32;;;;;;;3.67;1.63;;;;;22.00;98517.00;;;;5053571;28;20421;-66
2023/09/19 10:59:12;;;;;;;8.18;2.33;;;;;21.90;98502.00;;;;5055097;28;20083;-66
2023/09/19 11:01:51;;;;;;;6.13;1.80;;;;;21.80;98504.00;;;;5055283;28;20079;-66
2023/09/19 11:04:27;;;;;;;7.80;2.15;;;;;21.80;98501.00;;;;5054147;28;20043;-65
2023/09/19 11:07:11;;;;;;;5.82;2.08;;;;;21.80;98503.00;;;;5052498;28;20444;-66
2023/09/19 11:09:50;;;;;;;3.63;1.83;;;;;21.80;98498.00;;;;5053492;28;20041;-66
2023/09/19 11:12:29;;;;;;;3.47;1.48;;;;;21.80;98493.00;;;;5036641;28;20053;-66
2023/09/19 11:14:56;;;;;;;5.05;1.80;;;;;21.70;98496.00;;;;5053545;28;20128;-66
2023/09/19 11:17:37;;;;;;;4.25;1.35;;;;;21.80;98486.00;;;;5053904;28;20487;-66
2023/09/19 11:22:53;;;;;;;2.90;1.50;;;;;22.10;98477.00;;;;5054212;28;20045;-66
2023/09/19 11:25:47;;;;;;;3.80;1.42;;;;;22.10;98476.00;;;;5053490;28;20452;-66
2023/09/19 11:28:18;;;;;;;7.40;1.67;;;;;22.00;98478.00;;;;5036535;28;20045;-66
2023/09/19 11:30:46;;;;;;;4.60;1.48;;;;;22.10;98476.00;;;;5053980;28;20041;-66
2023/09/19 11:33:23;;;;;;;3.30;1.85;;;;;22.00;98477.00;;;;5052853;28;20452;-66
2023/09/19 11:36:24;;;;;;;4.82;1.60;;;;;22.10;98473.00;;;;5053581;28;20153;-66
2023/09/19 11:38:52;;;;;;;4.55;1.70;;;;;22.10;98470.00;;;;5054006;28;20036;-66
2023/09/19 11:41:31;;;;;;;6.30;2.05;;;;;22.00;98467.00;;;;5052718;28;20119;-66
2023/09/19 11:44:03;;;;;;;2.67;1.52;;;;;22.00;98469.00;;;;5052030;28;20041;-66
2023/09/19 11:46:31;;;;;;;5.18;1.65;;;;;22.10;98465.00;;;;5052409;28;20049;-66
2023/09/19 11:49:15;;;;;;;4.50;1.40;;;;;22.10;98473.00;;;;5052532;28;20048;-66
2023/09/19 11:51:44;;;;;;;3.13;1.58;;;;;22.00;98475.00;;;;5053694;28;20045;-66
2023/09/19 11:54:18;;;;;;;4.57;1.70;;;;;21.80;98469.00;;;;5051705;28;20095;-66
2023/09/19 11:56:48;;;;;;;3.35;1.55;;;;;21.80;98475.00;;;;5052199;28;20085;-66
2023/09/19 11:59:29;;;;;;;2.95;1.45;;;;;21.70;98479.00;;;;5053383;28;20053;-66
2023/09/19 12:02:08;;;;;;;4.07;1.85;;;;;21.70;98461.00;;;;5035375;28;20053;-65
2023/09/19 12:04:39;;;;;;;3.92;1.60;;;;;21.90;98455.00;;;;5052672;28;20037;-65
2023/09/19 12:07:16;;;;;;;1.80;1.20;;;;;22.10;98456.00;;;;5053141;28;20561;-65
2023/09/19 12:10:04;;;;;;;4.47;1.98;;;;;22.30;98460.00;;;;5053307;28;20051;-65
2023/09/19 12:12:32;;;;;;;4.20;1.77;;;;;22.50;98453.00;;;;5053318;28;20134;-65
2023/09/19 12:14:59;;;;;;;2.80;1.67;;;;;22.60;98453.00;;;;5052328;28;20557;-65
2023/09/19 12:17:37;;;;;;;2.67;1.50;;;;;22.90;98444.00;;;;5051748;28;20536;-65
2023/09/19 12:20:13;;;;;;;4.25;2.10;;;;;23.00;98457.00;;;;5052208;28;20049;-65
2023/09/19 12:22:43;;;;;;;3.60;1.30;;;;;23.30;98456.00;;;;5035400;28;20041;-65
2023/09/19 12:25:11;;;;;;;2.75;1.63;;;;;23.50;98454.00;;;;5051047;28;20577;-65
2023/09/19 12:27:52;;;;;;;4.18;1.10;;;;;23.50;98445.00;;;;5053392;28;20107;-65
2023/09/19 12:30:20;;;;;;;5.53;1.70;;;;;23.70;98444.00;;;;5052152;28;20055;-65
2023/09/19 12:32:55;;;;;;;6.22;1.52;;;;;24.00;98438.00;;;;5052145;28;20056;-65
2023/09/19 12:35:36;;;;;;;2.13;1.15;;;;;24.00;98440.00;;;;5051412;28;20052;-65
2023/09/19 12:38:03;;;;;;;2.63;1.33;;;;;24.00;98439.00;;;;5053020;28;20055;-65
2023/09/19 12:40:33;;;;;;;6.10;1.52;;;;;24.00;98444.00;;;;5051542;28;20055;-65
2023/09/19 12:43:04;;;;;;;2.03;1.00;;;;;23.90;98443.00;;;;5053069;28;20158;-65
2023/09/19 12:45:31;;;;;;;2.53;0.95;;;;;24.00;98447.00;;;;5052603;28;20136;-64
2023/09/19 12:48:31;;;;;;;3.25;1.55;;;;;24.10;98445.00;;;;5053361;28;20052;-66
2023/09/19 12:51:12;;;;;;;2.90;1.17;;;;;23.90;98437.00;;;;5053919;28;20033;-66